Wagarville, Alabama
Current Conditions -  °F | °C
As of 7:19 PM on Friday 19 Dec 2014 (Local Time) from KMOB Reporting Station
Moderate Rain Moderate Rain  
Wind Chill: 41°   Ceiling: 5000
Heat Index: 47°   Visibility: 6mi
Dew Point: 46°   Wind: 13mph
Humidity: 97%   Direction: 50°NE
Pressure: 30.12"   Gusts: NA
Location:  31.44°N, 88.03°W
Report Text: KMOB 200119Z 05011KT 6SM RA BR FEW006 SCT041 OVC050 08/08 A3012 RMK AO2 P0005 T00830078
Loading
Personal Weather Stations






























Interactive Weather Map New forecast layout! Learn more

10-Day Weather Forecast

Advertisements
Track Severe Weather on mobile